sensor_id;sensor_type;location;lat;lon;timestamp;temperature;humidity
77693;SHT31;66984;47.404;18.836;2023-02-02T00:00:59;5.69;74.98
77693;SHT31;66984;47.404;18.836;2023-02-02T00:02:01;5.67;74.66
77693;SHT31;66984;47.404;18.836;2023-02-02T00:03:04;5.69;74.45
77693;SHT31;66984;47.404;18.836;2023-02-02T00:04:17;5.70;74.63
77693;SHT31;66984;47.404;18.836;2023-02-02T00:05:20;5.70;74.68
77693;SHT31;66984;47.404;18.836;2023-02-02T00:06:25;5.73;74.75
77693;SHT31;66984;47.404;18.836;2023-02-02T00:07:28;5.70;74.69
77693;SHT31;66984;47.404;18.836;2023-02-02T00:08:31;5.67;74.56
77693;SHT31;66984;47.404;18.836;2023-02-02T00:09:35;5.65;72.61
77693;SHT31;66984;47.404;18.836;2023-02-02T00:10:37;5.63;72.50
77693;SHT31;66984;47.404;18.836;2023-02-02T00:11:41;5.63;73.57
77693;SHT31;66984;47.404;18.836;2023-02-02T00:12:44;5.62;74.11
77693;SHT31;66984;47.404;18.836;2023-02-02T00:13:47;5.60;73.62
77693;SHT31;66984;47.404;18.836;2023-02-02T00:14:49;5.60;73.95
77693;SHT31;66984;47.404;18.836;2023-02-02T00:15:54;5.51;73.78
77693;SHT31;66984;47.404;18.836;2023-02-02T00:16:57;5.54;73.44
77693;SHT31;66984;47.404;18.836;2023-02-02T00:17:59;5.54;73.24
77693;SHT31;66984;47.404;18.836;2023-02-02T00:19:09;5.48;72.65
77693;SHT31;66984;47.404;18.836;2023-02-02T00:20:12;5.45;73.07
77693;SHT31;66984;47.404;18.836;2023-02-02T00:21:15;5.45;72.55
77693;SHT31;66984;47.404;18.836;2023-02-02T00:22:17;5.46;72.63
77693;SHT31;66984;47.404;18.836;2023-02-02T00:23:22;5.48;72.49
77693;SHT31;66984;47.404;18.836;2023-02-02T00:24:25;5.48;72.69
77693;SHT31;66984;47.404;18.836;2023-02-02T00:25:28;5.48;72.59
77693;SHT31;66984;47.404;18.836;2023-02-02T00:26:30;5.46;72.93
77693;SHT31;66984;47.404;18.836;2023-02-02T00:27:35;5.39;72.22
77693;SHT31;66984;47.404;18.836;2023-02-02T00:28:38;5.42;71.98
77693;SHT31;66984;47.404;18.836;2023-02-02T00:29:41;5.41;72.13
77693;SHT31;66984;47.404;18.836;2023-02-02T00:30:43;5.41;72.35
77693;SHT31;66984;47.404;18.836;2023-02-02T00:31:47;5.46;72.33
77693;SHT31;66984;47.404;18.836;2023-02-02T00:32:49;5.45;72.16
77693;SHT31;66984;47.404;18.836;2023-02-02T00:33:54;5.46;72.09
77693;SHT31;66984;47.404;18.836;2023-02-02T00:34:59;5.49;71.90
77693;SHT31;66984;47.404;18.836;2023-02-02T00:36:02;5.48;71.66
77693;SHT31;66984;47.404;18.836;2023-02-02T00:37:05;5.51;71.73
77693;SHT31;66984;47.404;18.836;2023-02-02T00:38:08;5.55;71.77
77693;SHT31;66984;47.404;18.836;2023-02-02T00:39:14;5.54;71.22
77693;SHT31;66984;47.404;18.836;2023-02-02T00:40:17;5.58;71.73
77693;SHT31;66984;47.404;18.836;2023-02-02T00:41:20;5.55;71.66
77693;SHT31;66984;47.404;18.836;2023-02-02T00:42:22;5.56;71.68
77693;SHT31;66984;47.404;18.836;2023-02-02T00:43:25;5.60;71.08
77693;SHT31;66984;47.404;18.836;2023-02-02T00:44:28;5.59;70.60
77693;SHT31;66984;47.404;18.836;2023-02-02T00:45:49;5.55;70.50
77693;SHT31;66984;47.404;18.836;2023-02-02T00:46:53;5.56;70.95
77693;SHT31;66984;47.404;18.836;2023-02-02T00:47:56;5.52;70.78
77693;SHT31;66984;47.404;18.836;2023-02-02T00:49:01;5.52;70.89
77693;SHT31;66984;47.404;18.836;2023-02-02T00:50:04;5.49;70.38
77693;SHT31;66984;47.404;18.836;2023-02-02T00:51:09;5.48;70.11
77693;SHT31;66984;47.404;18.836;2023-02-02T00:52:13;5.51;70.13
77693;SHT31;66984;47.404;18.836;2023-02-02T00:53:17;5.54;70.70
77693;SHT31;66984;47.404;18.836;2023-02-02T00:54:20;5.56;70.55
77693;SHT31;66984;47.404;18.836;2023-02-02T00:55:23;5.52;70.25
77693;SHT31;66984;47.404;18.836;2023-02-02T00:56:27;5.56;70.69
77693;SHT31;66984;47.404;18.836;2023-02-02T00:57:30;5.56;70.33
77693;SHT31;66984;47.404;18.836;2023-02-02T00:58:33;5.56;70.37
77693;SHT31;66984;47.404;18.836;2023-02-02T00:59:37;5.55;70.21
77693;SHT31;66984;47.404;18.836;2023-02-02T01:00:42;5.55;70.47
77693;SHT31;66984;47.404;18.836;2023-02-02T01:01:44;5.55;70.37
77693;SHT31;66984;47.404;18.836;2023-02-02T01:02:48;5.59;70.75
77693;SHT31;66984;47.404;18.836;2023-02-02T01:03:50;5.60;70.60
77693;SHT31;66984;47.404;18.836;2023-02-02T01:04:55;5.59;70.62
77693;SHT31;66984;47.404;18.836;2023-02-02T01:05:58;5.58;70.84
77693;SHT31;66984;47.404;18.836;2023-02-02T01:07:01;5.60;70.90
77693;SHT31;66984;47.404;18.836;2023-02-02T01:08:04;5.62;70.96
77693;SHT31;66984;47.404;18.836;2023-02-02T01:09:09;5.62;70.85
77693;SHT31;66984;47.404;18.836;2023-02-02T01:10:15;5.66;71.07
77693;SHT31;66984;47.404;18.836;2023-02-02T01:11:18;5.70;70.97
77693;SHT31;66984;47.404;18.836;2023-02-02T01:12:21;5.60;71.02
77693;SHT31;66984;47.404;18.836;2023-02-02T01:13:24;5.62;71.00
77693;SHT31;66984;47.404;18.836;2023-02-02T01:14:26;5.62;71.53
77693;SHT31;66984;47.404;18.836;2023-02-02T01:15:29;5.66;71.32
77693;SHT31;66984;47.404;18.836;2023-02-02T01:16:32;5.58;71.63
77693;SHT31;66984;47.404;18.836;2023-02-02T01:17:35;5.52;71.88
77693;SHT31;66984;47.404;18.836;2023-02-02T01:18:38;5.52;72.10
77693;SHT31;66984;47.404;18.836;2023-02-02T01:19:41;5.54;71.94
77693;SHT31;66984;47.404;18.836;2023-02-02T01:20:45;5.55;72.33
77693;SHT31;66984;47.404;18.836;2023-02-02T01:21:47;5.59;72.45
77693;SHT31;66984;47.404;18.836;2023-02-02T01:22:50;5.58;72.65
77693;SHT31;66984;47.404;18.836;2023-02-02T01:23:53;5.51;72.44
77693;SHT31;66984;47.404;18.836;2023-02-02T01:24:56;5.44;72.38
77693;SHT31;66984;47.404;18.836;2023-02-02T01:26:00;5.42;72.65
77693;SHT31;66984;47.404;18.836;2023-02-02T01:27:04;5.36;72.72
77693;SHT31;66984;47.404;18.836;2023-02-02T01:28:06;5.39;72.95
77693;SHT31;66984;47.404;18.836;2023-02-02T01:29:09;5.36;73.19
77693;SHT31;66984;47.404;18.836;2023-02-02T01:30:12;5.35;73.21
77693;SHT31;66984;47.404;18.836;2023-02-02T01:31:17;5.39;73.30
77693;SHT31;66984;47.404;18.836;2023-02-02T01:32:20;5.34;73.63
77693;SHT31;66984;47.404;18.836;2023-02-02T01:33:24;5.25;74.17
77693;SHT31;66984;47.404;18.836;2023-02-02T01:34:27;5.23;74.46
77693;SHT31;66984;47.404;18.836;2023-02-02T01:35:31;5.14;74.65
77693;SHT31;66984;47.404;18.836;2023-02-02T01:36:34;5.13;74.95
77693;SHT31;66984;47.404;18.836;2023-02-02T01:37:39;5.10;75.21
77693;SHT31;66984;47.404;18.836;2023-02-02T01:38:42;5.05;75.29
77693;SHT31;66984;47.404;18.836;2023-02-02T01:39:45;5.01;75.61
77693;SHT31;66984;47.404;18.836;2023-02-02T01:40:52;5.00;75.64
77693;SHT31;66984;47.404;18.836;2023-02-02T01:41:57;4.98;75.70
77693;SHT31;66984;47.404;18.836;2023-02-02T01:42:59;4.98;75.78
77693;SHT31;66984;47.404;18.836;2023-02-02T01:44:04;4.96;76.00
77693;SHT31;66984;47.404;18.836;2023-02-02T01:45:16;4.98;75.77
77693;SHT31;66984;47.404;18.836;2023-02-02T01:47:38;4.96;75.86
77693;SHT31;66984;47.404;18.836;2023-02-02T01:48:46;4.90;76.11
77693;SHT31;66984;47.404;18.836;2023-02-02T01:49:49;4.90;76.13
77693;SHT31;66984;47.404;18.836;2023-02-02T01:51:05;4.84;76.19
77693;SHT31;66984;47.404;18.836;2023-02-02T01:52:12;4.87;76.16
77693;SHT31;66984;47.404;18.836;2023-02-02T01:53:16;4.84;76.44
77693;SHT31;66984;47.404;18.836;2023-02-02T01:54:30;4.84;76.44
77693;SHT31;66984;47.404;18.836;2023-02-02T01:55:36;4.84;76.44
77693;SHT31;66984;47.404;18.836;2023-02-02T01:56:46;4.87;76.32
77693;SHT31;66984;47.404;18.836;2023-02-02T01:58:00;4.90;76.39
77693;SHT31;66984;47.404;18.836;2023-02-02T01:59:04;4.90;76.40
77693;SHT31;66984;47.404;18.836;2023-02-02T02:00:11;4.88;76.33
77693;SHT31;66984;47.404;18.836;2023-02-02T02:01:14;4.93;76.26
77693;SHT31;66984;47.404;18.836;2023-02-02T02:02:17;4.93;76.21
77693;SHT31;66984;47.404;18.836;2023-02-02T02:03:23;4.97;76.17
77693;SHT31;66984;47.404;18.836;2023-02-02T02:04:28;5.03;76.03
77693;SHT31;66984;47.404;18.836;2023-02-02T02:05:35;5.01;76.05
77693;SHT31;66984;47.404;18.836;2023-02-02T02:06:39;5.05;76.13
77693;SHT31;66984;47.404;18.836;2023-02-02T02:07:44;5.05;76.02
77693;SHT31;66984;47.404;18.836;2023-02-02T02:08:52;5.10;75.94
77693;SHT31;66984;47.404;18.836;2023-02-02T02:09:57;5.11;75.85
77693;SHT31;66984;47.404;18.836;2023-02-02T02:11:00;5.13;75.86
77693;SHT31;66984;47.404;18.836;2023-02-02T02:12:12;5.13;75.70
77693;SHT31;66984;47.404;18.836;2023-02-02T02:13:18;5.17;75.66
77693;SHT31;66984;47.404;18.836;2023-02-02T02:14:22;5.18;75.66
77693;SHT31;66984;47.404;18.836;2023-02-02T02:15:56;5.21;75.49
77693;SHT31;66984;47.404;18.836;2023-02-02T02:21:22;5.11;75.53
77693;SHT31;66984;47.404;18.836;2023-02-02T02:29:26;4.93;76.79
77693;SHT31;66984;47.404;18.836;2023-02-02T02:34:45;4.84;77.21
77693;SHT31;66984;47.404;18.836;2023-02-02T02:36:01;4.83;77.26
77693;SHT31;66984;47.404;18.836;2023-02-02T02:37:10;4.81;77.21
77693;SHT31;66984;47.404;18.836;2023-02-02T02:38:27;4.79;77.36
77693;SHT31;66984;47.404;18.836;2023-02-02T02:39:42;4.79;77.35
77693;SHT31;66984;47.404;18.836;2023-02-02T02:40:52;4.76;77.47
77693;SHT31;66984;47.404;18.836;2023-02-02T02:42:06;4.76;77.54
77693;SHT31;66984;47.404;18.836;2023-02-02T02:43:29;4.76;77.65
77693;SHT31;66984;47.404;18.836;2023-02-02T02:44:34;4.75;77.37
77693;SHT31;66984;47.404;18.836;2023-02-02T02:45:38;4.75;77.23
77693;SHT31;66984;47.404;18.836;2023-02-02T02:46:41;4.75;77.60
77693;SHT31;66984;47.404;18.836;2023-02-02T02:47:46;4.75;77.58
77693;SHT31;66984;47.404;18.836;2023-02-02T02:48:50;4.75;77.65
77693;SHT31;66984;47.404;18.836;2023-02-02T02:49:52;4.75;77.54
77693;SHT31;66984;47.404;18.836;2023-02-02T02:52:57;4.75;77.24
77693;SHT31;66984;47.404;18.836;2023-02-02T02:54:01;4.69;77.13
77693;SHT31;66984;47.404;18.836;2023-02-02T02:55:06;4.73;77.24
77693;SHT31;66984;47.404;18.836;2023-02-02T02:56:21;4.72;77.34
77693;SHT31;66984;47.404;18.836;2023-02-02T02:57:38;4.72;77.47
77693;SHT31;66984;47.404;18.836;2023-02-02T02:58:56;4.70;77.25
77693;SHT31;66984;47.404;18.836;2023-02-02T03:01:35;4.57;77.53
77693;SHT31;66984;47.404;18.836;2023-02-02T03:04:31;4.53;77.74
77693;SHT31;66984;47.404;18.836;2023-02-02T03:07:21;4.48;77.90
77693;SHT31;66984;47.404;18.836;2023-02-02T03:09:36;4.48;78.16
77693;SHT31;66984;47.404;18.836;2023-02-02T03:10:41;4.48;78.07
77693;SHT31;66984;47.404;18.836;2023-02-02T03:11:45;4.50;77.96
77693;SHT31;66984;47.404;18.836;2023-02-02T03:12:50;4.49;77.91
77693;SHT31;66984;47.404;18.836;2023-02-02T03:13:53;4.45;77.78
77693;SHT31;66984;47.404;18.836;2023-02-02T03:14:56;4.45;77.83
77693;SHT31;66984;47.404;18.836;2023-02-02T03:15:59;4.49;77.88
77693;SHT31;66984;47.404;18.836;2023-02-02T03:17:02;4.50;77.64
77693;SHT31;66984;47.404;18.836;2023-02-02T03:18:05;4.46;77.49
77693;SHT31;66984;47.404;18.836;2023-02-02T03:19:08;4.46;77.16
77693;SHT31;66984;47.404;18.836;2023-02-02T03:20:15;4.44;77.38
77693;SHT31;66984;47.404;18.836;2023-02-02T03:21:19;4.52;77.34
77693;SHT31;66984;47.404;18.836;2023-02-02T03:22:22;4.50;77.24
77693;SHT31;66984;47.404;18.836;2023-02-02T03:23:25;4.53;77.21
77693;SHT31;66984;47.404;18.836;2023-02-02T03:24:28;4.52;77.05
77693;SHT31;66984;47.404;18.836;2023-02-02T03:25:31;4.52;76.97
77693;SHT31;66984;47.404;18.836;2023-02-02T03:26:36;4.50;76.90
77693;SHT31;66984;47.404;18.836;2023-02-02T03:27:42;4.48;76.91
77693;SHT31;66984;47.404;18.836;2023-02-02T03:28:45;4.44;76.79
77693;SHT31;66984;47.404;18.836;2023-02-02T03:29:47;4.46;76.83
77693;SHT31;66984;47.404;18.836;2023-02-02T03:30:52;4.44;76.93
77693;SHT31;66984;47.404;18.836;2023-02-02T03:31:56;4.45;76.93
77693;SHT31;66984;47.404;18.836;2023-02-02T03:32:58;4.45;76.72
77693;SHT31;66984;47.404;18.836;2023-02-02T03:34:01;4.42;76.62
77693;SHT31;66984;47.404;18.836;2023-02-02T03:35:04;4.42;76.78
77693;SHT31;66984;47.404;18.836;2023-02-02T03:36:09;4.44;76.82
77693;SHT31;66984;47.404;18.836;2023-02-02T03:37:13;4.45;76.52
77693;SHT31;66984;47.404;18.836;2023-02-02T03:38:18;4.44;76.24
77693;SHT31;66984;47.404;18.836;2023-02-02T03:39:23;4.45;76.40
77693;SHT31;66984;47.404;18.836;2023-02-02T03:40:27;4.44;76.36
77693;SHT31;66984;47.404;18.836;2023-02-02T03:41:30;4.45;76.08
77693;SHT31;66984;47.404;18.836;2023-02-02T03:42:32;4.39;75.93
77693;SHT31;66984;47.404;18.836;2023-02-02T03:43:35;4.42;75.92
77693;SHT31;66984;47.404;18.836;2023-02-02T03:44:38;4.48;76.01
77693;SHT31;66984;47.404;18.836;2023-02-02T03:45:40;4.46;75.85
77693;SHT31;66984;47.404;18.836;2023-02-02T03:46:43;4.49;75.67
77693;SHT31;66984;47.404;18.836;2023-02-02T03:47:46;4.49;75.71
77693;SHT31;66984;47.404;18.836;2023-02-02T03:48:48;4.50;75.54
77693;SHT31;66984;47.404;18.836;2023-02-02T03:49:51;4.49;75.50
77693;SHT31;66984;47.404;18.836;2023-02-02T03:50:54;4.49;75.45
77693;SHT31;66984;47.404;18.836;2023-02-02T03:52:00;4.50;75.50
77693;SHT31;66984;47.404;18.836;2023-02-02T03:53:04;4.48;75.40
77693;SHT31;66984;47.404;18.836;2023-02-02T03:54:07;4.48;75.20
77693;SHT31;66984;47.404;18.836;2023-02-02T03:55:09;4.50;75.26
77693;SHT31;66984;47.404;18.836;2023-02-02T03:56:12;4.46;75.24
77693;SHT31;66984;47.404;18.836;2023-02-02T03:57:15;4.49;75.20
77693;SHT31;66984;47.404;18.836;2023-02-02T03:58:18;4.52;75.49
77693;SHT31;66984;47.404;18.836;2023-02-02T03:59:25;4.48;75.12
77693;SHT31;66984;47.404;18.836;2023-02-02T04:00:28;4.45;75.18
77693;SHT31;66984;47.404;18.836;2023-02-02T04:01:36;4.44;75.01
77693;SHT31;66984;47.404;18.836;2023-02-02T04:02:39;4.44;75.12
77693;SHT31;66984;47.404;18.836;2023-02-02T04:03:41;4.41;75.23
77693;SHT31;66984;47.404;18.836;2023-02-02T04:04:44;4.44;75.22
77693;SHT31;66984;47.404;18.836;2023-02-02T04:05:49;4.46;75.19
77693;SHT31;66984;47.404;18.836;2023-02-02T04:06:52;4.39;74.99
77693;SHT31;66984;47.404;18.836;2023-02-02T04:07:54;4.35;75.24
77693;SHT31;66984;47.404;18.836;2023-02-02T04:08:59;4.32;75.05
77693;SHT31;66984;47.404;18.836;2023-02-02T04:10:04;4.34;75.04
77693;SHT31;66984;47.404;18.836;2023-02-02T04:11:10;4.34;75.21
77693;SHT31;66984;47.404;18.836;2023-02-02T04:12:13;4.34;74.97
77693;SHT31;66984;47.404;18.836;2023-02-02T04:13:17;4.29;75.03
77693;SHT31;66984;47.404;18.836;2023-02-02T04:14:20;4.24;75.06
77693;SHT31;66984;47.404;18.836;2023-02-02T04:15:22;4.24;75.14
77693;SHT31;66984;47.404;18.836;2023-02-02T04:16:26;4.22;75.31
77693;SHT31;66984;47.404;18.836;2023-02-02T04:17:31;4.18;75.32
77693;SHT31;66984;47.404;18.836;2023-02-02T04:18:34;4.17;75.37
77693;SHT31;66984;47.404;18.836;2023-02-02T04:19:39;4.18;75.25
77693;SHT31;66984;47.404;18.836;2023-02-02T04:20:41;4.08;75.44
77693;SHT31;66984;47.404;18.836;2023-02-02T04:21:46;4.09;75.49
77693;SHT31;66984;47.404;18.836;2023-02-02T04:22:53;4.08;75.41
77693;SHT31;66984;47.404;18.836;2023-02-02T04:23:57;4.09;75.48
77693;SHT31;66984;47.404;18.836;2023-02-02T04:25:00;4.09;75.42
77693;SHT31;66984;47.404;18.836;2023-02-02T04:26:03;4.09;75.41
77693;SHT31;66984;47.404;18.836;2023-02-02T04:27:09;4.11;75.27
77693;SHT31;66984;47.404;18.836;2023-02-02T04:28:13;4.12;75.12
77693;SHT31;66984;47.404;18.836;2023-02-02T04:29:16;4.07;75.14
77693;SHT31;66984;47.404;18.836;2023-02-02T04:30:19;4.14;75.14
77693;SHT31;66984;47.404;18.836;2023-02-02T04:31:22;4.08;75.11
77693;SHT31;66984;47.404;18.836;2023-02-02T04:32:25;4.09;75.05
77693;SHT31;66984;47.404;18.836;2023-02-02T04:33:27;4.09;75.17
77693;SHT31;66984;47.404;18.836;2023-02-02T04:34:30;4.09;75.13
77693;SHT31;66984;47.404;18.836;2023-02-02T04:35:35;4.11;75.07
77693;SHT31;66984;47.404;18.836;2023-02-02T04:36:38;4.09;75.07
77693;SHT31;66984;47.404;18.836;2023-02-02T04:37:41;4.12;74.98
77693;SHT31;66984;47.404;18.836;2023-02-02T04:38:49;4.17;75.08
77693;SHT31;66984;47.404;18.836;2023-02-02T04:39:55;4.21;74.92
77693;SHT31;66984;47.404;18.836;2023-02-02T04:41:07;4.22;74.76
77693;SHT31;66984;47.404;18.836;2023-02-02T04:42:12;4.19;74.81
77693;SHT31;66984;47.404;18.836;2023-02-02T04:43:16;4.15;74.81
77693;SHT31;66984;47.404;18.836;2023-02-02T04:44:18;4.12;74.88
77693;SHT31;66984;47.404;18.836;2023-02-02T04:45:21;4.11;74.92
77693;SHT31;66984;47.404;18.836;2023-02-02T04:46:24;4.11;75.06
77693;SHT31;66984;47.404;18.836;2023-02-02T04:47:28;4.09;74.96
77693;SHT31;66984;47.404;18.836;2023-02-02T04:48:31;4.11;74.89
77693;SHT31;66984;47.404;18.836;2023-02-02T04:49:33;4.12;74.77
77693;SHT31;66984;47.404;18.836;2023-02-02T04:50:36;4.11;74.80
77693;SHT31;66984;47.404;18.836;2023-02-02T04:51:40;4.09;74.78
77693;SHT31;66984;47.404;18.836;2023-02-02T04:52:43;4.11;74.90
77693;SHT31;66984;47.404;18.836;2023-02-02T04:53:45;4.05;74.94
77693;SHT31;66984;47.404;18.836;2023-02-02T04:54:51;4.09;74.94
77693;SHT31;66984;47.404;18.836;2023-02-02T04:55:54;4.12;74.91
77693;SHT31;66984;47.404;18.836;2023-02-02T04:56:57;4.11;74.86
77693;SHT31;66984;47.404;18.836;2023-02-02T04:58:00;4.15;74.64
77693;SHT31;66984;47.404;18.836;2023-02-02T04:59:03;4.09;74.71
77693;SHT31;66984;47.404;18.836;2023-02-02T05:00:06;4.04;74.85
77693;SHT31;66984;47.404;18.836;2023-02-02T05:02:12;3.99;75.04
77693;SHT31;66984;47.404;18.836;2023-02-02T05:03:15;4.02;75.05
77693;SHT31;66984;47.404;18.836;2023-02-02T05:04:17;3.97;75.05
77693;SHT31;66984;47.404;18.836;2023-02-02T05:05:20;3.93;75.26
77693;SHT31;66984;47.404;18.836;2023-02-02T05:06:24;3.87;75.42
77693;SHT31;66984;47.404;18.836;2023-02-02T05:07:26;3.88;75.39
77693;SHT31;66984;47.404;18.836;2023-02-02T05:08:30;3.84;75.63
77693;SHT31;66984;47.404;18.836;2023-02-02T05:09:32;3.83;75.59
77693;SHT31;66984;47.404;18.836;2023-02-02T05:10:38;3.73;75.86
77693;SHT31;66984;47.404;18.836;2023-02-02T05:11:42;3.73;76.08
77693;SHT31;66984;47.404;18.836;2023-02-02T05:12:45;3.67;76.19
77693;SHT31;66984;47.404;18.836;2023-02-02T05:13:51;3.66;76.34
77693;SHT31;66984;47.404;18.836;2023-02-02T05:14:57;3.64;76.39
77693;SHT31;66984;47.404;18.836;2023-02-02T05:16:02;3.60;76.50
77693;SHT31;66984;47.404;18.836;2023-02-02T05:17:05;3.56;76.63
77693;SHT31;66984;47.404;18.836;2023-02-02T05:18:08;3.50;76.84
77693;SHT31;66984;47.404;18.836;2023-02-02T05:19:11;3.50;76.95
77693;SHT31;66984;47.404;18.836;2023-02-02T05:20:14;3.52;76.98
77693;SHT31;66984;47.404;18.836;2023-02-02T05:21:17;3.50;77.00
77693;SHT31;66984;47.404;18.836;2023-02-02T05:22:33;3.53;76.87
77693;SHT31;66984;47.404;18.836;2023-02-02T05:23:36;3.53;76.83
77693;SHT31;66984;47.404;18.836;2023-02-02T05:24:39;3.49;76.74
77693;SHT31;66984;47.404;18.836;2023-02-02T05:25:43;3.48;76.85
77693;SHT31;66984;47.404;18.836;2023-02-02T05:26:47;3.44;76.79
77693;SHT31;66984;47.404;18.836;2023-02-02T05:27:50;3.50;76.77
77693;SHT31;66984;47.404;18.836;2023-02-02T05:28:52;3.46;76.72
77693;SHT31;66984;47.404;18.836;2023-02-02T05:29:55;3.46;76.72
77693;SHT31;66984;47.404;18.836;2023-02-02T05:30:58;3.40;76.89
77693;SHT31;66984;47.404;18.836;2023-02-02T05:32:01;3.43;76.95
77693;SHT31;66984;47.404;18.836;2023-02-02T05:33:03;3.42;77.05
77693;SHT31;66984;47.404;18.836;2023-02-02T05:34:06;3.43;77.05
77693;SHT31;66984;47.404;18.836;2023-02-02T05:35:12;3.43;76.87
77693;SHT31;66984;47.404;18.836;2023-02-02T05:36:17;3.40;76.83
77693;SHT31;66984;47.404;18.836;2023-02-02T05:37:19;3.38;76.89
77693;SHT31;66984;47.404;18.836;2023-02-02T05:38:22;3.39;76.95
77693;SHT31;66984;47.404;18.836;2023-02-02T05:39:26;3.38;77.03
77693;SHT31;66984;47.404;18.836;2023-02-02T05:40:29;3.38;76.98
77693;SHT31;66984;47.404;18.836;2023-02-02T05:41:31;3.39;76.90
77693;SHT31;66984;47.404;18.836;2023-02-02T05:42:34;3.36;76.96
77693;SHT31;66984;47.404;18.836;2023-02-02T05:43:37;3.36;77.03
77693;SHT31;66984;47.404;18.836;2023-02-02T05:44:39;3.36;77.04
77693;SHT31;66984;47.404;18.836;2023-02-02T05:45:45;3.35;77.01
77693;SHT31;66984;47.404;18.836;2023-02-02T05:46:47;3.30;77.00
77693;SHT31;66984;47.404;18.836;2023-02-02T05:47:52;3.36;77.00
77693;SHT31;66984;47.404;18.836;2023-02-02T05:48:57;3.35;76.97
77693;SHT31;66984;47.404;18.836;2023-02-02T05:50:08;3.38;77.00
77693;SHT31;66984;47.404;18.836;2023-02-02T05:51:16;3.40;76.99
77693;SHT31;66984;47.404;18.836;2023-02-02T05:52:22;3.35;77.06
77693;SHT31;66984;47.404;18.836;2023-02-02T05:53:27;3.30;77.08
77693;SHT31;66984;47.404;18.836;2023-02-02T05:54:30;3.30;77.15
77693;SHT31;66984;47.404;18.836;2023-02-02T05:55:36;3.33;77.08
77693;SHT31;66984;47.404;18.836;2023-02-02T05:56:39;3.32;77.22
77693;SHT31;66984;47.404;18.836;2023-02-02T05:57:41;3.29;77.29
77693;SHT31;66984;47.404;18.836;2023-02-02T05:58:44;3.26;77.49
77693;SHT31;66984;47.404;18.836;2023-02-02T05:59:49;3.29;77.42
77693;SHT31;66984;47.404;18.836;2023-02-02T06:00:52;3.33;77.27
77693;SHT31;66984;47.404;18.836;2023-02-02T06:01:57;3.28;77.15
77693;SHT31;66984;47.404;18.836;2023-02-02T06:02:59;3.33;77.24
77693;SHT31;66984;47.404;18.836;2023-02-02T06:04:02;3.38;77.10
77693;SHT31;66984;47.404;18.836;2023-02-02T06:05:05;3.38;76.92
77693;SHT31;66984;47.404;18.836;2023-02-02T06:06:08;3.40;76.89
77693;SHT31;66984;47.404;18.836;2023-02-02T06:07:11;3.40;76.73
77693;SHT31;66984;47.404;18.836;2023-02-02T06:08:14;3.43;76.61
77693;SHT31;66984;47.404;18.836;2023-02-02T06:09:17;3.46;76.56
77693;SHT31;66984;47.404;18.836;2023-02-02T06:10:22;3.44;76.47
77693;SHT31;66984;47.404;18.836;2023-02-02T06:11:25;3.49;76.55
77693;SHT31;66984;47.404;18.836;2023-02-02T06:12:27;3.46;76.59
77693;SHT31;66984;47.404;18.836;2023-02-02T06:13:33;3.49;76.65
77693;SHT31;66984;47.404;18.836;2023-02-02T06:14:37;3.49;76.83
77693;SHT31;66984;47.404;18.836;2023-02-02T06:15:39;3.50;76.73
77693;SHT31;66984;47.404;18.836;2023-02-02T06:16:45;3.53;76.48
77693;SHT31;66984;47.404;18.836;2023-02-02T06:17:48;3.56;76.51
77693;SHT31;66984;47.404;18.836;2023-02-02T06:18:54;3.56;76.10
77693;SHT31;66984;47.404;18.836;2023-02-02T06:19:57;3.56;76.03
77693;SHT31;66984;47.404;18.836;2023-02-02T06:21:02;3.52;76.10
77693;SHT31;66984;47.404;18.836;2023-02-02T06:22:05;3.49;76.20
77693;SHT31;66984;47.404;18.836;2023-02-02T06:23:08;3.43;76.30
77693;SHT31;66984;47.404;18.836;2023-02-02T06:24:12;3.44;76.33
77693;SHT31;66984;47.404;18.836;2023-02-02T06:25:15;3.48;76.31
77693;SHT31;66984;47.404;18.836;2023-02-02T06:26:18;3.48;76.49
77693;SHT31;66984;47.404;18.836;2023-02-02T06:27:20;3.49;76.28
77693;SHT31;66984;47.404;18.836;2023-02-02T06:28:23;3.48;76.25
77693;SHT31;66984;47.404;18.836;2023-02-02T06:29:26;3.52;76.27
77693;SHT31;66984;47.404;18.836;2023-02-02T06:30:32;3.50;76.16
77693;SHT31;66984;47.404;18.836;2023-02-02T06:31:35;3.53;76.08
77693;SHT31;66984;47.404;18.836;2023-02-02T06:32:38;3.52;76.14
77693;SHT31;66984;47.404;18.836;2023-02-02T06:33:40;3.55;76.03
77693;SHT31;66984;47.404;18.836;2023-02-02T06:34:43;3.53;75.94
77693;SHT31;66984;47.404;18.836;2023-02-02T06:35:46;3.56;75.97
77693;SHT31;66984;47.404;18.836;2023-02-02T06:36:48;3.59;75.90
77693;SHT31;66984;47.404;18.836;2023-02-02T06:37:51;3.63;75.89
77693;SHT31;66984;47.404;18.836;2023-02-02T06:38:55;3.55;75.85
77693;SHT31;66984;47.404;18.836;2023-02-02T06:39:59;3.53;75.90
77693;SHT31;66984;47.404;18.836;2023-02-02T06:41:02;3.55;75.91
77693;SHT31;66984;47.404;18.836;2023-02-02T06:42:07;3.57;75.92
77693;SHT31;66984;47.404;18.836;2023-02-02T06:43:21;3.59;75.71
77693;SHT31;66984;47.404;18.836;2023-02-02T06:44:24;3.62;75.70
77693;SHT31;66984;47.404;18.836;2023-02-02T06:45:28;3.67;75.60
77693;SHT31;66984;47.404;18.836;2023-02-02T06:46:31;3.67;75.44
77693;SHT31;66984;47.404;18.836;2023-02-02T06:47:35;3.71;75.42
77693;SHT31;66984;47.404;18.836;2023-02-02T06:48:38;3.74;75.32
77693;SHT31;66984;47.404;18.836;2023-02-02T06:49:41;3.74;75.24
77693;SHT31;66984;47.404;18.836;2023-02-02T06:50:44;3.77;75.19
77693;SHT31;66984;47.404;18.836;2023-02-02T06:51:46;3.80;75.14
77693;SHT31;66984;47.404;18.836;2023-02-02T06:52:51;3.76;75.01
77693;SHT31;66984;47.404;18.836;2023-02-02T06:53:54;3.77;75.06
77693;SHT31;66984;47.404;18.836;2023-02-02T06:54:59;3.73;75.20
77693;SHT31;66984;47.404;18.836;2023-02-02T06:56:05;3.74;75.32
77693;SHT31;66984;47.404;18.836;2023-02-02T06:57:08;3.76;75.21
77693;SHT31;66984;47.404;18.836;2023-02-02T06:58:11;3.73;75.06
77693;SHT31;66984;47.404;18.836;2023-02-02T06:59:13;3.71;75.13
77693;SHT31;66984;47.404;18.836;2023-02-02T07:00:16;3.76;74.98
77693;SHT31;66984;47.404;18.836;2023-02-02T07:01:20;3.80;74.87
77693;SHT31;66984;47.404;18.836;2023-02-02T07:02:23;3.81;74.87
77693;SHT31;66984;47.404;18.836;2023-02-02T07:03:26;3.83;74.79
77693;SHT31;66984;47.404;18.836;2023-02-02T07:04:31;3.86;74.81
77693;SHT31;66984;47.404;18.836;2023-02-02T07:05:36;3.86;74.44
77693;SHT31;66984;47.404;18.836;2023-02-02T07:06:40;3.86;74.16
77693;SHT31;66984;47.404;18.836;2023-02-02T07:07:42;3.90;74.32
77693;SHT31;66984;47.404;18.836;2023-02-02T07:08:46;3.86;74.34
77693;SHT31;66984;47.404;18.836;2023-02-02T07:10:02;3.87;74.36
77693;SHT31;66984;47.404;18.836;2023-02-02T07:11:05;3.87;74.49
77693;SHT31;66984;47.404;18.836;2023-02-02T07:12:16;3.93;74.33
77693;SHT31;66984;47.404;18.836;2023-02-02T07:13:20;3.93;74.38